Create Custom Reports and Graphics: Custom Report

AM-Summit 8643' (Ward Mt.)

Current Conditions

5/20/24 9:45 PM (-07:00)
Updated Every 15 Minutes
Temp 35.3 °F   2.2
WindChill 22.8 °F   7.0
RH 47 %   48
Dew Pt 16.9 °F   19.2
Wet Bulb 29.3 °F   7.7
Wind Dir NNE | 25 °
Wind Spd 26.5 mph   14.8
Wind Gust 30.5 mph   11.9
Daily Max Wind 44.4 mph   22.0
Time of Max Wind 1320
Max Wind Dir SSW | 192 °
Daily Min Temp 30.4 °F   7.0
Time of Min Temp 0557
Daily Max Temp 47.3 °F   3.1
Time of Max Temp 1809
Yest MinT 36.9 °F
Yest MaxT 50.4 °F
Yest MaxGst 66.4 mph
BatVolt 13.0 V   0.2

Last 6 Hours

AM-Summit 8643' (Ward Mt.)

15 Minute Data | America/Los_Angeles
as of 5/20/24 9:50 PM PDT
Date & Time Temp (°F) RH (%) Dew Pt (°F) Wet Bulb (°F) Wind Dir (°) Wind Spd (mph) Wind Gust (mph) WindChill (°F)
5/20/24 - 2145 35.3 47 16.9 29.3 NNE | 25 26.5 30.5 22.8
5/20/24 - 2130 35.9 45 16.9 29.7 NNE | 24 24.7 28.8 24.0
5/20/24 - 2115 36.3 45 17.2 30.0 NNE | 20 25.6 31.6 24.3
5/20/24 - 2100 36.7 46 18.1 30.5 NNE | 20 24.1 29.8 25.2
5/20/24 - 2045 37.5 47 19.2 31.2 NNE | 22 25.6 33.2 25.9
5/20/24 - 2030 38.4 48 20.2 32.0 NNE | 24 23.3 30.7 27.6
5/20/24 - 2015 39.0 49 21.4 32.8 NNE | 23 19.2 26.0 29.4
5/20/24 - 2000 39.7 50 22.6 33.5 NNE | 21 19.2 24.7 30.3
5/20/24 - 1945 40.5 51 24.0 34.4 NNE | 15 12.1 22.9 33.5
5/20/24 - 1930 41.3 52 25.0 35.1 NNE | 24 5.1 16.0 37.9
5/20/24 - 1915 42.3 51 25.5 35.8 NNE | 13 3.5 10.1 40.5
5/20/24 - 1900 43.0 50 25.5 36.2 NNW | 341 0.9 5.2 -
5/20/24 - 1845 44.8 57 30.5 38.8 W | 259 3.1 9.4 43.7
5/20/24 - 1830 46.2 55 31.2 39.8 SW | 227 11.9 20.3 -
5/20/24 - 1815 46.9 54 31.2 40.2 SW | 231 17.8 28.1 -
5/20/24 - 1800 46.9 55 31.4 40.3 SW | 230 24.1 30.8 -
5/20/24 - 1745 46.4 56 31.7 40.1 SW | 217 27.4 34.4 -
5/20/24 - 1730 45.4 58 31.4 39.5 SSW | 206 31.0 39.2 -
5/20/24 - 1715 45.8 57 31.3 39.7 S | 188 32.3 38.9 -
5/20/24 - 1700 45.3 56 30.7 39.2 S | 186 30.2 37.2 -
5/20/24 - 1645 44.7 57 30.3 38.8 S | 186 31.4 39.6 34.6
5/20/24 - 1630 43.5 59 30.0 38.0 SSW | 200 28.1 38.4 33.6
5/20/24 - 1615 42.5 61 29.9 37.4 SSW | 195 26.4 36.5 32.5
5/20/24 - 1600 42.9 60 29.9 37.6 S | 185 29.0 37.7 32.6
Max 46.9 61 31.7 40.3 - 32.3 39.6 43.7
Avg 42.0 53 25.9 35.8 - 20.9 28.3 31.1
Min 35.3 45 16.9 29.3 - 0.9 5.2 22.8

Last 30 Days

AM-Summit 8643' (Ward Mt.)

Daily Data | America/Los_Angeles
as of 5/20/24 9:50 PM PDT
Date Daily Max Temp (°F) Time of Max Temp Daily Min Temp (°F) Time of Min Temp Wind Spd (mph) Daily Max Wind (mph) Time of Max Wind Max Wind Dir (°) Dew Pt (°F) Max RH (%) Min RH (%) Max Wet Bulb Temp (°F) Min Wet Bulb Temp (°F) WetB Hrs <28F (hrs) Min Wind Chill (°F) Wind Chill Time MinBV Day (V)
5/19/24 50.4 1743 36.9 2219 32.0 66.4 1508 S | 177 35.0 98 29 44.0 29.5 0.0 25.1 0544 13.0
5/18/24 56.3 1722 41.0 2359 21.8 57.0 1718 SSW | 192 37.2 99 26 49.7 39.5 0.0 29.6 2358 13.0
5/17/24 60.8 1716 44.9 0556 18.5 37.0 1626 SSW | 192 32.9 71 15 52.1 36.9 0.0 36.4 0556 13.0
5/16/24 60.4 1601 45.8 0514 22.8 51.6 1637 SW | 215 28.8 72 30 48.3 36.6 0.0 45.8 - 13.0
5/15/24 65.7 1634 43.3 0551 18.6 44.5 0834 NNE | 16 27.6 61 22 49.5 36.9 0.0 32.1 0557 13.0
5/14/24 65.4 1723 42.8 0554 14.5 31.3 2120 NNE | 17 32.8 69 25 50.6 38.6 0.0 34.4 0558 13.0
5/13/24 60.9 1639 41.5 0558 10.3 39.4 1852 SW | 215 31.1 73 36 49.6 34.6 0.0 36.7 2200 13.0
5/12/24 57.3 1518 43.0 0559 10.4 43.0 1804 SW | 215 30.7 70 29 47.0 36.9 0.0 41.9 0515 13.0
5/11/24 63.1 1750 37.7 0603 14.0 41.4 0017 NE | 34 27.5 62 27 48.3 32.5 0.0 27.0 0609 13.0
5/10/24 54.5 1727 33.4 0607 34.2 68.6 0019 NE | 34 25.7 84 29 42.2 31.2 0.0 17.3 0705 13.0
5/9/24 47.0 1816 25.7 0624 63.3 110.9 0242 N | 1 24.6 91 43 38.8 24.6 9.7 0.6 0535 13.0
5/8/24 38.8 1650 22.2 0624 69.8 106.2 2241 NNE | 30 18.0 79 40 32.1 20.5 17.1 -3.1 0604 13.0
5/7/24 50.2 1746 21.1 0643 23.3 50.8 2139 NE | 43 23.6 100 28 39.4 21.0 15.2 0.6 0549 13.0
5/6/24 31.7 1618 20.0 0001 29.6 72.2 1641 SW | 219 25.9 100 99 31.6 19.8 16.5 4.2 0352 13.0
5/5/24 22.8 1510 14.7 0625 35.4 81.6 1555 SW | 221 18.7 100 97 22.7 14.6 24.0 -9.7 0636 13.0
5/4/24 35.6 0001 16.0 2134 42.6 119.8 0824 S | 191 23.8 100 62 31.6 15.8 13.6 -9.4 2037 13.0
5/3/24 48.2 1612 31.8 0559 22.8 50.5 2335 SSE | 168 30.2 100 31 41.6 29.8 0.0 18.8 0102 13.0
5/2/24 45.2 1657 33.0 0212 26.8 63.8 1347 SW | 216 23.7 96 36 39.1 27.2 0.4 19.1 2118 13.0
5/1/24 51.0 1712 23.6 0643 15.1 33.8 1741 SW | 222 16.3 78 17 39.2 21.4 9.4 7.8 0609 13.0
4/30/24 44.2 1750 30.9 0117 25.9 59.5 1545 SW | 214 - 61 13 36.2 22.3 14.2 16.4 2115 13.0
4/29/24 41.5 1626 27.5 0645 32.3 66.9 1446 SSW | 212 23.5 100 12 35.5 23.7 5.0 10.8 0642 13.0
4/28/24 42.6 1521 28.4 0606 19.6 51.9 1620 SSW | 205 29.6 100 59 38.0 27.9 0.3 15.6 2313 13.0
4/27/24 39.2 1554 23.6 0448 18.0 44.6 1631 SSW | 209 28.8 100 77 37.2 23.5 9.6 6.5 0105 13.0
4/26/24 30.7 1335 25.5 2352 28.0 73.5 0002 SSW | 192 27.3 100 100 30.6 25.4 17.2 5.9 0610 13.0
4/25/24 38.1 1316 28.9 2353 24.0 73.5 2359 SSW | 204 25.3 100 42 35.2 25.0 6.7 7.3 2359 13.0
4/24/24 40.5 1359 30.1 2141 28.0 44.3 1512 SSW | 210 29.4 100 44 37.8 26.5 1.6 16.5 2142 13.0
4/23/24 46.3 1035 35.2 2359 19.6 45.3 1617 SW | 214 37.2 100 55 43.2 35.3 0.0 21.2 2351 13.0
4/22/24 54.4 1733 43.0 2322 19.1 46.5 1547 S | 184 25.6 74 23 44.8 34.1 0.0 34.2 0535 13.0
4/21/24 56.2 1813 42.6 0207 18.0 40.0 1701 SSW | 210 18.6 64 15 45.0 31.4 0.0 35.0 0307 13.0
4/20/24 52.8 1738 38.0 0407 21.0 40.0 1351 S | 182 26.2 83 24 45.1 31.8 0.0 26.2 0638 13.0
Max 65.7 - 45.8 - 69.8 119.8 - - 37.2 100 100 52.1 39.5 24.0 45.8 - 13.0
Avg - - - - 26.0 - - - 27.1 - - - - - - - -
Min 22.8 - 14.7 - 10.3 31.3 - - 16.3 61 12 22.7 14.6 0.0 -9.7 - 13.0
Calm: 0.0%
Calm: 0.0%